Time;durP1;ratioP1;P1;durP2;ratioP2;P2;SDS_P1;SDS_P2;PMS_P1;PMS_P2;Temp;Humidity;BMP_temperature;BMP_pressure;BME280_temperature;BME280_humidity;BME280_pressure;Samples;Min_cycle;Max_cycle;Signal;HPM_P1;HPM_P2
2022/04/03 00:00:37;;;;;;;6.78;4.70;;;5.60;67.00;;;;;;5085300;28;20040;-71
2022/04/03 00:03:06;;;;;;;6.90;4.82;;;5.60;67.10;;;;;;5069851;28;20027;-73
2022/04/03 00:05:38;;;;;;;7.32;4.68;;;5.60;66.90;;;;;;5084612;28;20096;-73
2022/04/03 00:08:08;;;;;;;6.60;4.25;;;5.50;67.20;;;;;;5087502;28;20028;-73
2022/04/03 00:10:35;;;;;;;6.03;4.43;;;5.50;67.30;;;;;;5076952;28;20358;-71
2022/04/03 00:13:01;;;;;;;6.68;4.45;;;5.60;67.40;;;;;;5092452;28;20480;-73
2022/04/03 00:15:27;;;;;;;6.68;4.55;;;5.60;67.50;;;;;;5090716;28;20045;-73
2022/04/03 00:17:53;;;;;;;7.47;4.78;;;5.60;67.00;;;;;;5091984;28;20024;-73
2022/04/03 00:20:19;;;;;;;9.88;4.75;;;5.60;67.20;;;;;;5098879;28;20043;-73
2022/04/03 00:22:48;;;;;;;6.97;4.65;;;5.60;67.40;;;;;;5092033;28;20489;-73
2022/04/03 00:25:18;;;;;;;7.30;5.05;;;5.70;67.10;;;;;;5091953;28;20069;-73
2022/04/03 00:27:44;;;;;;;7.53;5.20;;;5.60;67.30;;;;;;5091903;28;20028;-73
2022/04/03 00:30:11;;;;;;;6.22;4.43;;;5.50;67.80;;;;;;5091795;28;20029;-71
2022/04/03 00:32:37;;;;;;;8.05;4.55;;;5.40;68.70;;;;;;5095456;28;20073;-71
2022/04/03 00:35:04;;;;;;;7.10;4.38;;;5.40;68.40;;;;;;5092410;28;20024;-71
2022/04/03 00:37:31;;;;;;;7.10;4.30;;;5.30;69.50;;;;;;5091799;28;20038;-71
2022/04/03 00:39:56;;;;;;;6.53;4.40;;;5.20;69.30;;;;;;5091737;28;20035;-71
2022/04/03 00:42:23;;;;;;;7.07;4.30;;;5.20;70.00;;;;;;5091786;28;20028;-71
2022/04/03 00:44:49;;;;;;;6.40;4.40;;;5.10;69.80;;;;;;5094116;28;20032;-71
2022/04/03 00:47:18;;;;;;;6.72;4.25;;;5.00;69.90;;;;;;5093083;28;20118;-71
2022/04/03 00:49:44;;;;;;;7.35;4.78;;;5.00;70.50;;;;;;5091790;28;20056;-71
2022/04/03 00:52:10;;;;;;;7.28;4.50;;;4.90;70.60;;;;;;5091363;28;20074;-71
2022/04/03 00:54:36;;;;;;;8.80;5.10;;;4.90;70.80;;;;;;5091615;28;20078;-71
2022/04/03 00:57:09;;;;;;;7.97;4.80;;;4.90;70.80;;;;;;5092156;28;20128;-71
2022/04/03 00:59:35;;;;;;;6.35;4.32;;;4.90;70.50;;;;;;5090705;28;20024;-71
2022/04/03 01:02:02;;;;;;;8.48;4.97;;;4.80;70.60;;;;;;5075286;28;20107;-71
2022/04/03 01:04:28;;;;;;;8.73;5.45;;;4.70;70.90;;;;;;5091674;28;20391;-71
2022/04/03 01:06:55;;;;;;;9.18;5.47;;;4.70;71.10;;;;;;5091548;28;20051;-71
2022/04/03 01:09:20;;;;;;;8.45;5.20;;;4.70;71.50;;;;;;5091219;28;20063;-71
2022/04/03 01:11:46;;;;;;;7.28;4.93;;;4.70;71.40;;;;;;5093485;28;20500;-71
2022/04/03 01:14:12;;;;;;;9.05;4.95;;;4.70;71.40;;;;;;5092231;28;20024;-71
2022/04/03 01:16:38;;;;;;;8.80;6.03;;;4.70;71.30;;;;;;5091010;28;20043;-71
2022/04/03 01:19:05;;;;;;;10.00;5.55;;;4.70;71.10;;;;;;5091068;28;20500;-71
2022/04/03 01:21:31;;;;;;;6.93;4.95;;;4.60;71.20;;;;;;5091419;28;20039;-71
2022/04/03 01:23:56;;;;;;;7.60;5.20;;;4.60;71.40;;;;;;5092320;28;20027;-71
2022/04/03 01:26:26;;;;;;;8.60;5.60;;;4.50;71.50;;;;;;5093089;28;20499;-71
2022/04/03 01:28:52;;;;;;;8.40;5.40;;;4.60;71.80;;;;;;5090320;28;20046;-71
2022/04/03 01:31:18;;;;;;;6.93;5.30;;;4.60;71.90;;;;;;5090344;28;20040;-70
2022/04/03 01:33:44;;;;;;;8.20;5.50;;;4.70;72.20;;;;;;5091084;28;20032;-71
2022/04/03 01:36:10;;;;;;;8.77;5.22;;;4.70;72.10;;;;;;5090668;28;20090;-71
2022/04/03 01:38:36;;;;;;;8.10;4.78;;;4.60;72.20;;;;;;5093898;28;20032;-71
2022/04/03 01:41:02;;;;;;;7.53;4.85;;;4.70;72.40;;;;;;5091247;28;20524;-71
2022/04/03 01:43:27;;;;;;;7.00;5.05;;;4.70;72.20;;;;;;5090087;28;20059;-71
2022/04/03 01:45:53;;;;;;;8.13;5.28;;;4.70;72.20;;;;;;5090596;28;20028;-71
2022/04/03 01:48:19;;;;;;;7.97;5.20;;;4.70;72.50;;;;;;5072701;28;20031;-71
2022/04/03 01:50:45;;;;;;;7.82;5.40;;;4.70;72.40;;;;;;5092845;28;20066;-71
2022/04/03 01:53:12;;;;;;;8.35;6.07;;;4.70;73.00;;;;;;5091553;28;20607;-71
2022/04/03 01:55:40;;;;;;;7.97;5.22;;;4.70;72.60;;;;;;5090536;28;20074;-71
2022/04/03 01:58:08;;;;;;;7.78;5.00;;;4.70;72.60;;;;;;5089961;28;20499;-71
2022/04/03 02:00:34;;;;;;;7.78;5.25;;;4.70;72.70;;;;;;5090207;28;20020;-71
2022/04/03 02:03:00;;;;;;;8.13;5.40;;;4.70;72.60;;;;;;5091410;28;20060;-71
2022/04/03 02:05:25;;;;;;;6.93;4.78;;;4.70;73.00;;;;;;5092861;28;20044;-71
2022/04/03 02:07:51;;;;;;;9.20;5.35;;;4.70;74.00;;;;;;5072138;28;20039;-71
2022/04/03 02:10:17;;;;;;;8.18;5.50;;;4.70;72.70;;;;;;5089844;28;20107;-71
2022/04/03 02:12:44;;;;;;;7.78;5.35;;;4.60;73.10;;;;;;5089862;28;20020;-71
2022/04/03 02:15:11;;;;;;;7.07;4.90;;;4.70;72.70;;;;;;5090267;28;22475;-71
2022/04/03 02:17:40;;;;;;;7.82;4.85;;;4.80;73.10;;;;;;5093341;28;20028;-70
2022/04/03 02:20:09;;;;;;;7.72;5.05;;;4.70;72.50;;;;;;5090907;28;20043;-71
2022/04/03 02:22:35;;;;;;;7.13;4.85;;;4.70;72.70;;;;;;5089759;28;20428;-71
2022/04/03 02:25:02;;;;;;;7.90;5.03;;;4.60;72.70;;;;;;5089506;28;20031;-71
2022/04/03 02:27:28;;;;;;;8.15;5.60;;;4.70;72.50;;;;;;5090353;28;20017;-71
2022/04/03 02:29:53;;;;;;;8.50;5.13;;;4.60;73.40;;;;;;5091323;28;20031;-71
2022/04/03 02:32:21;;;;;;;7.60;4.95;;;4.60;73.40;;;;;;5091526;28;20024;-71
2022/04/03 02:34:46;;;;;;;10.85;4.88;;;4.70;72.70;;;;;;5089805;28;20500;-71
2022/04/03 02:37:14;;;;;;;9.93;5.05;;;4.60;73.30;;;;;;5089533;28;20108;-71
2022/04/03 02:39:41;;;;;;;8.30;5.07;;;4.60;73.20;;;;;;5089064;28;20286;-71
2022/04/03 02:42:07;;;;;;;7.80;5.00;;;4.60;73.50;;;;;;5088525;28;20501;-71
2022/04/03 02:44:34;;;;;;;7.60;5.28;;;4.60;73.40;;;;;;5093446;28;20054;-71
2022/04/03 02:47:00;;;;;;;8.68;4.65;;;4.50;72.90;;;;;;5089614;28;20039;-71
2022/04/03 02:49:26;;;;;;;6.65;4.80;;;4.60;72.70;;;;;;5089256;28;20024;-71
2022/04/03 02:51:52;;;;;;;7.55;4.57;;;4.60;72.30;;;;;;5089250;28;20078;-71
2022/04/03 02:54:18;;;;;;;6.75;5.00;;;4.50;73.00;;;;;;5088935;28;20022;-71
2022/04/03 02:56:44;;;;;;;7.47;4.95;;;4.50;73.20;;;;;;5091426;28;20497;-71
2022/04/03 02:59:10;;;;;;;8.93;5.57;;;4.50;73.30;;;;;;5090239;28;20536;-71
2022/04/03 03:01:35;;;;;;;7.93;5.00;;;4.60;73.30;;;;;;5089393;28;20034;-71
2022/04/03 03:04:01;;;;;;;7.68;4.97;;;4.60;73.10;;;;;;5089137;28;20489;-71
2022/04/03 03:06:27;;;;;;;8.18;5.45;;;4.60;73.20;;;;;;5089130;28;20028;-71
2022/04/03 03:08:52;;;;;;;6.70;4.90;;;4.60;73.90;;;;;;5090504;28;20119;-71
2022/04/03 03:11:18;;;;;;;6.63;4.90;;;4.60;73.60;;;;;;5090420;28;20445;-71
2022/04/03 03:13:44;;;;;;;7.25;4.80;;;4.60;73.50;;;;;;5091385;28;20024;-71
2022/04/03 03:16:10;;;;;;;7.40;4.75;;;4.50;73.80;;;;;;5089140;28;20040;-71
2022/04/03 03:18:35;;;;;;;6.97;5.03;;;4.50;73.70;;;;;;5088890;28;20036;-71
2022/04/03 03:21:01;;;;;;;8.10;5.22;;;4.50;73.90;;;;;;5088846;28;20425;-71
2022/04/03 03:23:28;;;;;;;8.55;4.80;;;4.40;74.00;;;;;;5091657;28;20028;-71
2022/04/03 03:25:54;;;;;;;8.10;5.18;;;4.40;74.00;;;;;;5088919;28;20039;-71
2022/04/03 03:28:19;;;;;;;7.95;5.15;;;4.50;74.10;;;;;;5088883;28;20028;-71
2022/04/03 03:30:45;;;;;;;7.32;4.90;;;4.40;73.70;;;;;;5070500;28;20545;-71
2022/04/03 03:33:11;;;;;;;7.05;5.00;;;4.40;73.90;;;;;;5088968;28;20390;-71
2022/04/03 03:35:36;;;;;;;8.35;5.35;;;4.40;74.20;;;;;;5092078;28;20036;-71
2022/04/03 03:38:02;;;;;;;6.70;4.57;;;4.30;74.00;;;;;;5088240;28;20031;-71
2022/04/03 03:40:28;;;;;;;8.15;5.20;;;4.40;74.40;;;;;;5088709;28;20089;-71
2022/04/03 03:42:55;;;;;;;7.18;5.15;;;4.40;74.20;;;;;;5088472;28;20032;-71
2022/04/03 03:45:21;;;;;;;7.25;4.82;;;4.40;74.00;;;;;;5088507;28;20485;-71
2022/04/03 03:47:48;;;;;;;8.05;5.40;;;4.40;74.30;;;;;;5091427;28;20050;-71
2022/04/03 03:50:15;;;;;;;7.28;5.43;;;4.50;74.40;;;;;;5088044;28;20032;-71
2022/04/03 03:52:42;;;;;;;7.63;5.10;;;4.50;74.40;;;;;;5087244;28;20047;-71
2022/04/03 03:55:08;;;;;;;7.07;5.22;;;4.40;74.30;;;;;;5088168;28;20028;-71
2022/04/03 03:57:34;;;;;;;7.50;4.97;;;4.40;74.60;;;;;;5088618;28;20032;-71
2022/04/03 04:00:01;;;;;;;6.95;4.55;;;4.30;74.80;;;;;;5089890;28;20035;-72
2022/04/03 04:02:26;;;;;;;7.22;5.10;;;4.30;74.90;;;;;;5091914;28;20431;-71
2022/04/03 04:04:52;;;;;;;9.57;5.05;;;4.30;75.20;;;;;;5088136;28;20024;-71
2022/04/03 04:07:18;;;;;;;7.70;4.88;;;4.30;75.10;;;;;;5087868;28;20024;-71
2022/04/03 04:09:44;;;;;;;6.78;5.13;;;4.30;75.40;;;;;;5070129;28;20039;-71
2022/04/03 04:12:10;;;;;;;7.88;5.25;;;4.30;75.30;;;;;;5070480;28;20565;-71
2022/04/03 04:14:38;;;;;;;8.13;5.40;;;4.40;75.20;;;;;;5091484;28;20051;-71
2022/04/03 04:17:05;;;;;;;6.95;5.10;;;4.40;74.80;;;;;;5088777;28;20560;-71
2022/04/03 04:19:31;;;;;;;7.65;4.68;;;4.40;75.00;;;;;;5088023;28;20024;-71
2022/04/03 04:21:57;;;;;;;7.60;4.88;;;4.40;75.30;;;;;;5087784;28;20185;-71
2022/04/03 04:24:22;;;;;;;8.18;5.32;;;4.40;75.80;;;;;;5088201;28;20342;-71
2022/04/03 04:26:48;;;;;;;8.32;4.80;;;4.40;75.70;;;;;;5090829;28;20416;-70
2022/04/03 04:29:14;;;;;;;10.25;5.70;;;4.40;75.80;;;;;;5089182;28;20111;-70
2022/04/03 04:31:39;;;;;;;8.07;5.47;;;4.30;75.30;;;;;;5088493;28;20040;-71
2022/04/03 04:34:05;;;;;;;7.60;5.53;;;4.20;76.80;;;;;;5088018;28;20511;-71
2022/04/03 04:36:31;;;;;;;7.88;6.15;;;4.20;77.20;;;;;;5087727;28;20043;-71
2022/04/03 04:38:57;;;;;;;8.20;5.38;;;4.10;77.60;;;;;;5089264;28;20034;-71
2022/04/03 04:41:24;;;;;;;10.13;6.20;;;4.00;78.30;;;;;;5090235;28;20035;-71
2022/04/03 04:43:49;;;;;;;8.80;6.13;;;4.10;78.70;;;;;;5088300;28;20552;-71
2022/04/03 04:46:15;;;;;;;9.50;5.57;;;4.00;78.90;;;;;;5088020;28;20095;-71
2022/04/03 04:48:41;;;;;;;7.95;5.72;;;4.00;79.10;;;;;;5069718;28;20020;-71
2022/04/03 04:51:07;;;;;;;9.18;5.38;;;3.90;79.50;;;;;;5087623;28;20067;-71
2022/04/03 04:53:32;;;;;;;7.03;5.70;;;3.90;79.20;;;;;;5091404;28;20375;-71
2022/04/03 04:55:58;;;;;;;8.18;5.72;;;3.80;79.70;;;;;;5087717;28;20035;-71
2022/04/03 04:58:24;;;;;;;7.88;5.68;;;3.90;80.00;;;;;;5087884;28;20024;-71
2022/04/03 05:00:50;;;;;;;8.15;5.45;;;3.90;79.50;;;;;;5088069;28;20382;-71
2022/04/03 05:03:15;;;;;;;7.72;5.47;;;3.80;79.50;;;;;;5087439;28;20029;-71
2022/04/03 05:05:41;;;;;;;8.27;5.13;;;3.80;80.30;;;;;;5073956;28;20028;-71
2022/04/03 05:08:07;;;;;;;8.55;5.85;;;3.80;79.90;;;;;;5092008;28;20035;-71
2022/04/03 05:10:33;;;;;;;8.10;5.85;;;3.80;80.20;;;;;;5091868;28;20020;-71
2022/04/03 05:13:01;;;;;;;7.47;5.50;;;3.70;80.90;;;;;;5091239;28;20404;-71
2022/04/03 05:15:29;;;;;;;7.65;5.70;;;3.70;81.20;;;;;;5091208;28;20063;-71
2022/04/03 05:17:55;;;;;;;8.52;5.82;;;3.70;80.70;;;;;;5092412;28;20066;-72
2022/04/03 05:20:21;;;;;;;8.65;6.18;;;3.60;81.00;;;;;;5094376;28;20446;-72
2022/04/03 05:22:48;;;;;;;9.55;5.97;;;3.70;80.50;;;;;;5090830;28;20085;-72
2022/04/03 05:25:13;;;;;;;7.97;5.60;;;3.70;80.90;;;;;;5091010;28;20107;-72
2022/04/03 05:27:40;;;;;;;8.95;5.90;;;3.70;80.90;;;;;;5091311;28;20118;-72
2022/04/03 05:30:07;;;;;;;9.20;5.70;;;3.80;80.40;;;;;;5091310;28;20048;-72
2022/04/03 05:32:33;;;;;;;9.75;6.25;;;3.80;80.10;;;;;;5094222;28;20042;-72
2022/04/03 05:34:59;;;;;;;7.45;5.30;;;3.70;80.40;;;;;;5090290;28;20028;-72
2022/04/03 05:37:26;;;;;;;8.73;5.85;;;3.70;79.60;;;;;;5091075;28;20035;-72
2022/04/03 05:39:52;;;;;;;8.43;6.03;;;3.80;79.40;;;;;;5090682;28;20046;-73
2022/04/03 05:42:19;;;;;;;8.82;6.45;;;3.90;78.90;;;;;;5072505;28;20488;-72
2022/04/03 05:44:45;;;;;;;8.95;6.40;;;3.90;79.60;;;;;;5092888;28;20052;-73
2022/04/03 05:47:11;;;;;;;8.20;6.50;;;3.90;79.70;;;;;;5091517;28;20109;-72
2022/04/03 05:49:37;;;;;;;8.32;5.88;;;3.90;80.10;;;;;;5090320;28;20027;-72
2022/04/03 05:52:04;;;;;;;8.77;6.22;;;3.90;79.50;;;;;;5090100;28;20048;-73
2022/04/03 05:54:30;;;;;;;9.60;5.97;;;4.10;79.50;;;;;;5090591;28;20012;-73
2022/04/03 05:56:56;;;;;;;9.07;6.18;;;4.10;80.10;;;;;;5092265;28;21016;-73
2022/04/03 05:59:22;;;;;;;9.80;6.35;;;4.10;80.10;;;;;;5093762;28;20027;-73
2022/04/03 06:01:48;;;;;;;9.60;6.22;;;4.20;79.20;;;;;;5090245;28;20032;-73
2022/04/03 06:04:14;;;;;;;10.10;6.55;;;4.20;78.20;;;;;;5071891;28;20380;-73
2022/04/03 06:06:41;;;;;;;11.88;7.78;;;4.20;79.10;;;;;;5090008;28;20374;-73
2022/04/03 06:09:07;;;;;;;16.50;10.32;;;4.20;78.80;;;;;;5072267;28;20036;-73
2022/04/03 06:11:33;;;;;;;19.45;12.48;;;4.20;78.60;;;;;;5089481;28;20465;-73
2022/04/03 06:14:00;;;;;;;18.85;10.38;;;4.10;79.10;;;;;;5090133;28;20076;-73
2022/04/03 06:16:26;;;;;;;16.17;10.35;;;4.20;79.30;;;;;;5089573;28;20036;-73
2022/04/03 06:18:53;;;;;;;18.95;10.85;;;4.40;78.70;;;;;;5089854;28;20463;-73
2022/04/03 06:21:19;;;;;;;20.38;11.35;;;4.50;79.00;;;;;;5089639;28;20028;-73
2022/04/03 06:23:45;;;;;;;18.75;10.48;;;4.40;78.30;;;;;;5092625;28;20035;-73
2022/04/03 06:26:11;;;;;;;15.63;8.88;;;4.50;78.30;;;;;;5090892;28;20036;-73
2022/04/03 06:28:36;;;;;;;12.15;7.28;;;4.50;78.20;;;;;;5089700;28;20024;-73
2022/04/03 06:31:02;;;;;;;9.65;6.40;;;4.50;78.10;;;;;;5089558;28;20031;-73
2022/04/03 06:33:28;;;;;;;11.07;6.05;;;4.60;78.60;;;;;;5089306;28;20493;-73
2022/04/03 06:35:54;;;;;;;8.65;6.07;;;4.60;78.30;;;;;;5090873;28;20036;-72
2022/04/03 06:38:20;;;;;;;9.85;6.05;;;4.60;78.80;;;;;;5093080;28;20024;-73
2022/04/03 06:40:48;;;;;;;8.95;5.93;;;4.70;78.30;;;;;;5089591;28;20513;-72
2022/04/03 06:43:19;;;;;;;9.13;6.00;;;4.80;78.30;;;;;;5089692;28;20027;-72
2022/04/03 06:45:47;;;;;;;12.73;6.88;;;4.90;78.50;;;;;;5089524;28;20028;-72
2022/04/03 06:48:12;;;;;;;12.25;7.30;;;5.00;78.00;;;;;;5089085;28;20099;-72
2022/04/03 06:50:38;;;;;;;14.80;7.93;;;5.10;78.00;;;;;;5074187;28;20114;-72
2022/04/03 06:53:04;;;;;;;15.20;8.02;;;5.10;77.70;;;;;;5089744;28;20107;-72
2022/04/03 06:55:30;;;;;;;15.80;8.20;;;5.20;77.90;;;;;;5089414;28;20036;-72
2022/04/03 06:57:56;;;;;;;14.75;8.27;;;5.20;77.80;;;;;;5089371;28;20034;-73
2022/04/03 07:00:22;;;;;;;14.43;8.23;;;5.30;77.80;;;;;;5088827;28;20024;-73
2022/04/03 07:02:49;;;;;;;14.82;7.55;;;5.40;78.20;;;;;;5091485;28;20036;-75
2022/04/03 07:05:15;;;;;;;17.48;7.93;;;5.30;77.80;;;;;;5090104;28;20107;-71
2022/04/03 07:07:41;;;;;;;16.00;9.38;;;5.50;78.30;;;;;;5089111;28;20020;-72
2022/04/03 07:10:08;;;;;;;16.40;8.63;;;5.50;77.80;;;;;;5089051;28;20112;-72
2022/04/03 07:12:34;;;;;;;18.05;9.15;;;5.70;78.70;;;;;;5089092;28;20024;-75
2022/04/03 07:14:59;;;;;;;18.17;9.65;;;5.80;78.20;;;;;;5089728;28;20519;-74
2022/04/03 07:17:25;;;;;;;16.95;9.80;;;5.90;77.10;;;;;;5091199;28;20066;-74
2022/04/03 07:19:51;;;;;;;15.48;8.45;;;6.00;77.50;;;;;;5089086;28;20538;-73
2022/04/03 07:22:17;;;;;;;12.65;7.55;;;6.10;76.60;;;;;;5088847;28;20028;-73
2022/04/03 07:24:43;;;;;;;12.02;7.47;;;6.10;76.80;;;;;;5088999;28;20024;-73
2022/04/03 07:27:09;;;;;;;9.13;6.00;;;6.20;75.90;;;;;;5088519;28;20084;-73
2022/04/03 07:29:35;;;;;;;9.82;6.05;;;6.30;75.10;;;;;;5073652;28;20101;-73
2022/04/03 07:32:01;;;;;;;8.80;5.78;;;6.40;75.10;;;;;;5088839;28;20034;-83
2022/04/03 07:34:26;;;;;;;10.27;6.43;;;6.50;74.30;;;;;;5088634;28;20157;-82
2022/04/03 07:36:52;;;;;;;10.88;5.72;;;6.70;73.80;;;;;;5088941;28;20123;-83
2022/04/03 07:39:18;;;;;;;8.80;6.10;;;6.90;73.10;;;;;;5088724;28;20378;-83
2022/04/03 07:41:44;;;;;;;9.50;5.18;;;7.00;71.70;;;;;;5090919;28;20137;-82
2022/04/03 07:44:12;;;;;;;7.28;5.05;;;7.10;71.30;;;;;;5089223;28;20035;-79
2022/04/03 07:46:37;;;;;;;7.28;4.97;;;7.20;69.40;;;;;;5088491;28;20081;-82
2022/04/03 07:49:04;;;;;;;8.32;5.25;;;7.20;69.80;;;;;;5088557;28;20489;-80
2022/04/03 07:51:31;;;;;;;7.40;4.53;;;7.40;68.80;;;;;;5088123;28;20044;-82
2022/04/03 07:53:57;;;;;;;7.85;4.85;;;7.40;66.60;;;;;;5089942;28;20020;-80
2022/04/03 07:56:23;;;;;;;9.85;4.90;;;7.40;67.40;;;;;;5092077;28;20036;-81
2022/04/03 07:58:49;;;;;;;7.03;4.63;;;7.50;67.80;;;;;;5088025;28;20023;-82
2022/04/03 08:01:15;;;;;;;7.88;4.25;;;7.60;67.10;;;;;;5088150;28;20064;-82
2022/04/03 08:03:41;;;;;;;7.18;5.20;;;7.70;66.30;;;;;;5088208;28;20094;-81
2022/04/03 08:06:06;;;;;;;7.03;4.40;;;7.80;67.00;;;;;;5088472;28;20042;-79
2022/04/03 08:08:33;;;;;;;9.32;5.13;;;8.00;67.20;;;;;;5092133;28;20031;-80
2022/04/03 08:10:58;;;;;;;7.40;4.93;;;7.90;65.20;;;;;;5087693;28;20034;-82
2022/04/03 08:13:24;;;;;;;7.80;4.60;;;7.90;65.50;;;;;;5087709;28;20111;-80
2022/04/03 08:15:50;;;;;;;6.57;4.50;;;8.00;65.70;;;;;;5088146;28;20409;-83
2022/04/03 08:18:17;;;;;;;7.28;4.85;;;8.20;65.10;;;;;;5069912;28;20068;-82
2022/04/03 08:20:44;;;;;;;8.18;4.78;;;8.20;64.60;;;;;;5090980;28;20477;-78
2022/04/03 08:23:10;;;;;;;8.82;5.13;;;8.30;65.30;;;;;;5090480;28;20020;-75
2022/04/03 08:25:37;;;;;;;8.20;4.75;;;8.40;65.50;;;;;;5087890;28;20028;-76
2022/04/03 08:28:03;;;;;;;6.45;4.60;;;8.50;64.20;;;;;;5087497;28;20024;-80
2022/04/03 08:30:34;;;;;;;7.60;4.55;;;8.50;64.30;;;;;;5088310;28;20055;-81
2022/04/03 08:33:01;;;;;;;6.88;4.43;;;8.50;64.20;;;;;;5089291;28;20819;-80
2022/04/03 08:35:28;;;;;;;6.82;4.88;;;8.60;64.40;;;;;;5091339;28;20046;-82
2022/04/03 08:37:55;;;;;;;6.97;4.63;;;8.80;64.70;;;;;;5088345;28;20111;-81
2022/04/03 08:40:23;;;;;;;6.13;4.53;;;9.00;63.80;;;;;;5105368;28;20107;-80
2022/04/03 08:42:51;;;;;;;6.10;3.92;;;9.00;62.90;;;;;;5090238;28;20029;-81
2022/04/03 08:45:17;;;;;;;6.40;4.30;;;9.20;62.20;;;;;;5091446;28;20029;-81
2022/04/03 08:47:45;;;;;;;7.05;3.60;;;9.30;61.50;;;;;;5094404;28;20058;-74
2022/04/03 08:50:13;;;;;;;6.80;4.25;;;9.40;62.20;;;;;;5093623;28;20021;-77
2022/04/03 08:52:43;;;;;;;5.90;3.90;;;9.40;60.90;;;;;;5090207;28;20048;-78
2022/04/03 08:55:10;;;;;;;5.88;3.70;;;9.40;62.20;;;;;;5091399;28;20027;-77
2022/04/03 08:57:35;;;;;;;6.65;4.30;;;9.40;62.20;;;;;;5090964;28;20039;-76
2022/04/03 09:00:01;;;;;;;5.65;4.03;;;9.50;61.60;;;;;;5073768;28;20029;-77
2022/04/03 09:02:27;;;;;;;6.13;3.67;;;9.60;61.20;;;;;;5093828;28;20031;-77
2022/04/03 09:04:53;;;;;;;6.63;4.25;;;9.50;60.30;;;;;;5089851;28;20054;-75
2022/04/03 09:07:19;;;;;;;7.70;4.03;;;9.50;60.60;;;;;;5091291;28;20480;-77
2022/04/03 09:09:55;;;;;;;5.80;3.78;;;9.50;61.00;;;;;;5090650;28;20036;-71
2022/04/03 09:12:20;;;;;;;7.00;4.35;;;9.60;60.50;;;;;;5072054;28;20028;-72
2022/04/03 09:14:48;;;;;;;6.75;4.35;;;9.80;60.90;;;;;;5092682;28;20036;-74
2022/04/03 09:18:00;;;;;;;6.03;4.20;;;10.20;61.10;;;;;;5091813;28;20435;-72
2022/04/03 09:20:30;;;;;;;6.65;4.10;;;10.40;59.70;;;;;;5070952;28;20404;-75
2022/04/03 09:22:58;;;;;;;6.38;4.00;;;10.60;59.80;;;;;;5090749;28;20489;-74
2022/04/03 09:25:33;;;;;;;6.00;4.00;;;10.80;59.10;;;;;;5089760;28;20024;-74
2022/04/03 09:28:03;;;;;;;6.93;3.55;;;10.80;59.50;;;;;;5090254;28;20119;-74
2022/04/03 09:30:31;;;;;;;5.45;3.85;;;10.70;59.90;;;;;;5090630;28;20028;-73
2022/04/03 09:32:59;;;;;;;5.88;3.38;;;10.60;59.00;;;;;;5091958;28;20048;-74
2022/04/03 09:35:31;;;;;;;7.03;4.03;;;10.80;58.60;;;;;;5092214;28;20032;-73
2022/04/03 09:38:15;;;;;;;6.30;3.90;;;10.90;59.60;;;;;;5087334;28;20492;-73
2022/04/03 09:40:40;;;;;;;5.82;3.88;;;11.10;59.20;;;;;;5088812;28;20032;-74
2022/04/03 09:43:17;;;;;;;7.38;3.80;;;11.30;59.30;;;;;;5093884;28;20043;-75
2022/04/03 09:45:49;;;;;;;5.47;3.85;;;11.40;58.40;;;;;;5104069;28;20038;-74
2022/04/03 09:48:36;;;;;;;5.30;3.60;;;11.60;57.90;;;;;;5087825;28;20025;-76
2022/04/03 09:51:05;;;;;;;5.57;3.85;;;11.50;57.70;;;;;;5087242;28;20063;-72
2022/04/03 09:53:47;;;;;;;5.93;3.30;;;11.50;58.60;;;;;;5094318;28;20028;-73
2022/04/03 09:56:31;;;;;;;5.90;4.03;;;11.50;57.80;;;;;;5091294;28;20722;-70
2022/04/03 09:58:57;;;;;;;6.00;4.43;;;11.40;58.40;;;;;;5090957;28;20238;-71
2022/04/03 10:01:40;;;;;;;5.40;3.60;;;11.40;58.00;;;;;;5088705;28;20024;-73
2022/04/03 10:04:09;;;;;;;4.95;3.42;;;11.50;58.50;;;;;;5090896;28;20123;-72
2022/04/03 10:06:35;;;;;;;6.45;3.80;;;11.60;58.90;;;;;;5090345;28;20031;-72
2022/04/03 10:09:02;;;;;;;6.25;4.00;;;11.40;57.60;;;;;;5087619;28;20397;-71
2022/04/03 10:11:29;;;;;;;6.40;3.60;;;11.40;59.50;;;;;;5093629;28;20081;-74
2022/04/03 10:13:55;;;;;;;6.13;3.78;;;11.50;59.40;;;;;;5090948;28;20043;-75
2022/04/03 10:16:22;;;;;;;5.57;3.83;;;11.50;59.40;;;;;;5090323;28;20489;-74
2022/04/03 10:18:49;;;;;;;6.60;4.70;;;11.60;58.50;;;;;;5075589;28;20523;-71
2022/04/03 10:21:54;;;;;;;6.00;4.47;;;11.50;57.80;;;;;;5086831;28;20029;-71
2022/04/03 10:24:23;;;;;;;6.47;4.90;;;11.60;57.80;;;;;;5027734;28;20033;-72
2022/04/03 10:27:04;;;;;;;5.97;4.35;;;11.70;58.60;;;;;;5028231;28;20036;-72
2022/04/03 10:29:32;;;;;;;6.50;4.45;;;11.70;57.70;;;;;;5031109;28;20049;-72
2022/04/03 10:32:03;;;;;;;5.57;3.75;;;11.90;58.60;;;;;;5028697;28;20036;-72
2022/04/03 10:34:29;;;;;;;5.55;3.78;;;12.10;58.30;;;;;;5028959;28;20406;-73
2022/04/03 10:36:55;;;;;;;6.57;3.33;;;11.80;57.30;;;;;;5033250;28;20551;-72
2022/04/03 10:39:29;;;;;;;5.72;3.92;;;11.50;58.10;;;;;;5031634;28;20567;-72
2022/04/03 10:42:15;;;;;;;5.43;3.70;;;11.40;58.00;;;;;;5029713;28;20044;-71
2022/04/03 10:44:41;;;;;;;5.47;3.70;;;11.40;58.10;;;;;;5041882;28;20033;-71
2022/04/03 10:47:10;;;;;;;5.97;3.80;;;11.50;58.10;;;;;;5033446;28;20632;-74
2022/04/03 10:49:54;;;;;;;5.53;3.75;;;11.60;58.00;;;;;;5033001;28;20054;-74
2022/04/03 10:52:22;;;;;;;5.63;4.00;;;11.70;58.10;;;;;;5031511;28;20054;-74
2022/04/03 10:54:58;;;;;;;5.25;3.78;;;11.50;57.50;;;;;;5052303;28;20528;-73
2022/04/03 10:57:43;;;;;;;7.00;3.92;;;11.40;57.80;;;;;;5088040;28;20089;-73
2022/04/03 11:00:13;;;;;;;6.65;4.00;;;11.60;58.60;;;;;;5073267;28;20048;-73
2022/04/03 11:02:39;;;;;;;6.07;4.03;;;11.80;57.40;;;;;;5090647;28;20028;-73
2022/04/03 11:05:25;;;;;;;5.40;3.88;;;11.80;57.60;;;;;;5089156;28;20128;-72
2022/04/03 11:07:52;;;;;;;5.85;4.20;;;11.80;57.00;;;;;;5087020;28;20028;-74
2022/04/03 11:10:53;;;;;;;7.07;4.13;;;11.80;58.20;;;;;;5088125;28;20033;-72
2022/04/03 11:13:34;;;;;;;5.63;4.10;;;11.90;57.80;;;;;;5088336;28;20099;-72
2022/04/03 11:16:05;;;;;;;5.70;4.03;;;11.90;58.00;;;;;;5088319;28;20392;-73
2022/04/03 11:18:44;;;;;;;7.53;4.03;;;11.80;57.80;;;;;;5088364;28;20053;-73
2022/04/03 11:21:13;;;;;;;6.43;4.00;;;11.70;57.90;;;;;;5071957;28;20409;-73
2022/04/03 11:23:50;;;;;;;5.47;3.75;;;11.70;57.90;;;;;;5090353;28;20111;-73
2022/04/03 11:26:17;;;;;;;6.10;4.15;;;11.60;57.70;;;;;;5071693;28;20032;-75
2022/04/03 11:28:44;;;;;;;6.10;4.03;;;11.70;59.20;;;;;;5087738;28;20032;-80
2022/04/03 11:31:10;;;;;;;5.80;4.30;;;11.90;59.20;;;;;;5088075;28;20538;-71
2022/04/03 11:33:37;;;;;;;5.97;4.13;;;12.00;58.00;;;;;;5088889;28;20489;-70
2022/04/03 11:36:08;;;;;;;6.68;4.05;;;12.00;57.90;;;;;;5089118;28;20417;-75
2022/04/03 11:38:38;;;;;;;5.97;4.30;;;11.80;57.80;;;;;;5087607;28;20050;-71
2022/04/03 11:41:13;;;;;;;6.78;4.45;;;11.90;58.20;;;;;;5090366;28;20110;-71
2022/04/03 11:43:40;;;;;;;6.00;3.90;;;11.90;60.20;;;;;;5088323;28;20072;-71
2022/04/03 11:46:07;;;;;;;6.78;4.18;;;12.00;59.00;;;;;;5088376;28;20040;-71
2022/04/03 11:48:41;;;;;;;9.30;4.50;;;12.10;59.00;;;;;;5088013;28;20031;-71
2022/04/03 11:51:17;;;;;;;5.95;4.53;;;12.10;59.20;;;;;;5070857;28;20503;-71
2022/04/03 11:53:45;;;;;;;6.00;4.20;;;11.90;58.60;;;;;;5086850;28;20139;-71
2022/04/03 11:56:17;;;;;;;5.68;4.18;;;11.80;60.00;;;;;;5090573;28;20400;-71
2022/04/03 11:58:45;;;;;;;6.95;3.78;;;11.70;59.30;;;;;;5086262;28;20024;-71
2022/04/03 12:01:11;;;;;;;5.50;4.20;;;11.70;58.70;;;;;;5087720;28;20032;-70
2022/04/03 12:03:38;;;;;;;5.90;4.25;;;11.70;58.50;;;;;;5087795;28;20105;-71
2022/04/03 12:06:17;;;;;;;6.93;4.63;;;11.80;58.50;;;;;;5088151;28;20032;-74
2022/04/03 12:08:45;;;;;;;6.38;4.18;;;11.80;58.00;;;;;;5087491;28;20024;-72
2022/04/03 12:11:45;;;;;;;6.18;3.78;;;11.90;59.00;;;;;;5106225;28;20044;-71
2022/04/03 12:14:20;;;;;;;5.93;4.05;;;12.20;60.00;;;;;;5088061;28;20055;-71
2022/04/03 12:16:46;;;;;;;6.68;4.50;;;12.20;57.90;;;;;;5083811;28;20032;-71
2022/04/03 12:19:17;;;;;;;6.40;4.20;;;12.10;57.90;;;;;;5084008;28;20436;-71
2022/04/03 12:21:46;;;;;;;7.78;4.97;;;12.20;59.10;;;;;;5083712;28;20024;-71
2022/04/03 12:24:25;;;;;;;6.25;4.00;;;12.20;58.90;;;;;;5090218;28;20032;-71
2022/04/03 12:27:01;;;;;;;6.25;4.55;;;12.10;58.70;;;;;;5076753;28;20166;-71
2022/04/03 12:29:31;;;;;;;7.55;4.25;;;12.00;58.30;;;;;;5078887;28;20447;-71
2022/04/03 12:32:02;;;;;;;6.13;4.28;;;11.80;57.70;;;;;;5078483;28;20028;-75
2022/04/03 12:34:30;;;;;;;5.95;4.22;;;11.70;59.00;;;;;;5078589;28;20024;-74
2022/04/03 12:36:58;;;;;;;5.50;3.92;;;11.80;59.20;;;;;;5078720;28;20521;-75
2022/04/03 12:39:33;;;;;;;7.07;4.45;;;11.80;59.70;;;;;;5075976;28;20107;-72
2022/04/03 12:42:11;;;;;;;7.43;4.63;;;11.80;59.80;;;;;;5082193;28;20437;-74
2022/04/03 12:44:57;;;;;;;7.07;4.90;;;11.70;59.40;;;;;;5090345;28;20051;-73
2022/04/03 12:47:30;;;;;;;6.53;4.80;;;11.60;58.80;;;;;;5078232;28;20040;-74
2022/04/03 12:50:05;;;;;;;5.95;4.45;;;11.60;59.20;;;;;;5078115;28;20056;-74
2022/04/03 12:52:49;;;;;;;6.72;4.75;;;11.60;60.00;;;;;;5078114;28;20043;-74
2022/04/03 12:55:23;;;;;;;7.20;5.53;;;11.70;59.70;;;;;;5079587;28;20035;-74
2022/04/03 13:01:10;;;;;;;6.35;4.68;;;11.70;59.10;;;;;;5090105;28;20081;-74